sensor_id;sensor_type;location;lat;lon;timestamp;temperature;humidity
55313;DHT22;46892;45.668;11.756;2023-07-13T00:01:15;20.50;86.60
55313;DHT22;46892;45.668;11.756;2023-07-13T00:03:41;20.50;86.70
55313;DHT22;46892;45.668;11.756;2023-07-13T00:06:07;20.70;86.00
55313;DHT22;46892;45.668;11.756;2023-07-13T00:08:34;20.80;86.00
55313;DHT22;46892;45.668;11.756;2023-07-13T00:11:03;20.80;86.00
55313;DHT22;46892;45.668;11.756;2023-07-13T00:13:30;20.90;85.60
55313;DHT22;46892;45.668;11.756;2023-07-13T00:15:57;20.90;85.20
55313;DHT22;46892;45.668;11.756;2023-07-13T00:18:23;21.00;86.20
55313;DHT22;46892;45.668;11.756;2023-07-13T00:20:50;21.10;85.80
55313;DHT22;46892;45.668;11.756;2023-07-13T00:23:16;21.20;85.10
55313;DHT22;46892;45.668;11.756;2023-07-13T00:25:42;21.30;84.90
55313;DHT22;46892;45.668;11.756;2023-07-13T00:28:08;21.40;84.40
55313;DHT22;46892;45.668;11.756;2023-07-13T00:30:34;21.30;84.30
55313;DHT22;46892;45.668;11.756;2023-07-13T00:33:00;21.20;84.20
55313;DHT22;46892;45.668;11.756;2023-07-13T00:35:27;21.10;83.20
55313;DHT22;46892;45.668;11.756;2023-07-13T00:37:55;21.00;84.10
55313;DHT22;46892;45.668;11.756;2023-07-13T00:40:22;20.90;84.60
55313;DHT22;46892;45.668;11.756;2023-07-13T00:42:47;20.80;84.40
55313;DHT22;46892;45.668;11.756;2023-07-13T00:47:43;20.70;86.20
55313;DHT22;46892;45.668;11.756;2023-07-13T00:50:10;20.70;85.70
55313;DHT22;46892;45.668;11.756;2023-07-13T00:52:40;20.50;85.50
55313;DHT22;46892;45.668;11.756;2023-07-13T00:55:07;20.30;85.50
55313;DHT22;46892;45.668;11.756;2023-07-13T00:57:34;20.00;86.30
55313;DHT22;46892;45.668;11.756;2023-07-13T01:00:04;19.80;86.90
55313;DHT22;46892;45.668;11.756;2023-07-13T01:02:39;19.80;87.50
55313;DHT22;46892;45.668;11.756;2023-07-13T01:05:17;20.00;87.60
55313;DHT22;46892;45.668;11.756;2023-07-13T01:07:45;20.00;87.20
55313;DHT22;46892;45.668;11.756;2023-07-13T01:10:14;20.20;86.50
55313;DHT22;46892;45.668;11.756;2023-07-13T01:12:40;20.10;86.40
55313;DHT22;46892;45.668;11.756;2023-07-13T01:15:42;20.20;87.10
55313;DHT22;46892;45.668;11.756;2023-07-13T01:18:17;20.20;86.70
55313;DHT22;46892;45.668;11.756;2023-07-13T01:20:58;20.10;87.00
55313;DHT22;46892;45.668;11.756;2023-07-13T01:23:24;20.20;87.40
55313;DHT22;46892;45.668;11.756;2023-07-13T01:25:51;20.10;87.60
55313;DHT22;46892;45.668;11.756;2023-07-13T01:28:18;20.10;87.70
55313;DHT22;46892;45.668;11.756;2023-07-13T01:30:44;20.10;88.00
55313;DHT22;46892;45.668;11.756;2023-07-13T01:33:12;20.30;88.00
55313;DHT22;46892;45.668;11.756;2023-07-13T01:35:38;20.20;88.20
55313;DHT22;46892;45.668;11.756;2023-07-13T01:38:05;20.20;88.30
55313;DHT22;46892;45.668;11.756;2023-07-13T01:40:31;20.20;88.40
55313;DHT22;46892;45.668;11.756;2023-07-13T01:42:58;20.20;88.30
55313;DHT22;46892;45.668;11.756;2023-07-13T01:45:24;20.20;88.20
55313;DHT22;46892;45.668;11.756;2023-07-13T01:47:49;20.20;88.10
55313;DHT22;46892;45.668;11.756;2023-07-13T01:50:15;20.20;88.10
55313;DHT22;46892;45.668;11.756;2023-07-13T01:52:41;20.30;87.90
55313;DHT22;46892;45.668;11.756;2023-07-13T01:55:07;20.30;87.80
55313;DHT22;46892;45.668;11.756;2023-07-13T01:57:33;20.30;87.70
55313;DHT22;46892;45.668;11.756;2023-07-13T01:59:59;20.30;87.60
55313;DHT22;46892;45.668;11.756;2023-07-13T02:02:25;20.30;87.50
55313;DHT22;46892;45.668;11.756;2023-07-13T02:04:50;20.30;87.40
55313;DHT22;46892;45.668;11.756;2023-07-13T02:07:16;20.30;87.70
55313;DHT22;46892;45.668;11.756;2023-07-13T02:09:42;20.40;87.60
55313;DHT22;46892;45.668;11.756;2023-07-13T02:12:08;20.60;87.70
55313;DHT22;46892;45.668;11.756;2023-07-13T02:14:34;20.70;86.90
55313;DHT22;46892;45.668;11.756;2023-07-13T02:17:00;20.70;86.70
55313;DHT22;46892;45.668;11.756;2023-07-13T02:19:26;20.80;86.20
55313;DHT22;46892;45.668;11.756;2023-07-13T02:21:51;20.80;86.60
55313;DHT22;46892;45.668;11.756;2023-07-13T02:24:17;20.80;85.90
55313;DHT22;46892;45.668;11.756;2023-07-13T02:26:45;20.90;85.80
55313;DHT22;46892;45.668;11.756;2023-07-13T02:29:11;20.90;86.30
55313;DHT22;46892;45.668;11.756;2023-07-13T02:31:37;20.90;86.60
55313;DHT22;46892;45.668;11.756;2023-07-13T02:34:03;20.90;86.30
55313;DHT22;46892;45.668;11.756;2023-07-13T02:36:30;20.90;86.10
55313;DHT22;46892;45.668;11.756;2023-07-13T02:39:00;20.90;85.80
55313;DHT22;46892;45.668;11.756;2023-07-13T02:41:26;20.80;86.30
55313;DHT22;46892;45.668;11.756;2023-07-13T02:43:52;20.80;86.60
55313;DHT22;46892;45.668;11.756;2023-07-13T02:46:18;20.90;86.20
55313;DHT22;46892;45.668;11.756;2023-07-13T02:48:45;21.00;86.60
55313;DHT22;46892;45.668;11.756;2023-07-13T02:51:11;21.00;85.70
55313;DHT22;46892;45.668;11.756;2023-07-13T02:53:37;21.00;86.70
55313;DHT22;46892;45.668;11.756;2023-07-13T02:56:04;21.10;86.30
55313;DHT22;46892;45.668;11.756;2023-07-13T02:58:30;21.10;85.70
55313;DHT22;46892;45.668;11.756;2023-07-13T03:00:56;21.10;84.80
55313;DHT22;46892;45.668;11.756;2023-07-13T03:03:23;21.10;84.90
55313;DHT22;46892;45.668;11.756;2023-07-13T03:05:58;21.00;85.00
55313;DHT22;46892;45.668;11.756;2023-07-13T03:08:25;20.90;86.50
55313;DHT22;46892;45.668;11.756;2023-07-13T03:11:02;20.90;86.60
55313;DHT22;46892;45.668;11.756;2023-07-13T03:13:28;20.90;87.00
55313;DHT22;46892;45.668;11.756;2023-07-13T03:15:54;20.90;86.20
55313;DHT22;46892;45.668;11.756;2023-07-13T03:18:20;21.00;85.80
55313;DHT22;46892;45.668;11.756;2023-07-13T03:20:46;21.00;86.40
55313;DHT22;46892;45.668;11.756;2023-07-13T03:23:11;21.10;86.60
55313;DHT22;46892;45.668;11.756;2023-07-13T03:25:37;21.00;86.30
55313;DHT22;46892;45.668;11.756;2023-07-13T03:28:03;21.00;86.60
55313;DHT22;46892;45.668;11.756;2023-07-13T03:30:31;20.90;86.30
55313;DHT22;46892;45.668;11.756;2023-07-13T03:32:56;20.90;86.10
55313;DHT22;46892;45.668;11.756;2023-07-13T03:35:22;20.90;85.90
55313;DHT22;46892;45.668;11.756;2023-07-13T03:37:48;20.90;86.40
55313;DHT22;46892;45.668;11.756;2023-07-13T03:40:14;21.00;85.90
55313;DHT22;46892;45.668;11.756;2023-07-13T03:42:39;21.00;85.60
55313;DHT22;46892;45.668;11.756;2023-07-13T03:45:06;21.10;85.70
55313;DHT22;46892;45.668;11.756;2023-07-13T03:47:32;21.00;85.90
55313;DHT22;46892;45.668;11.756;2023-07-13T03:49:57;21.00;86.90
55313;DHT22;46892;45.668;11.756;2023-07-13T03:52:23;21.00;87.00
55313;DHT22;46892;45.668;11.756;2023-07-13T03:54:49;21.10;86.50
55313;DHT22;46892;45.668;11.756;2023-07-13T03:57:14;21.10;86.30
55313;DHT22;46892;45.668;11.756;2023-07-13T03:59:40;21.10;86.00
55313;DHT22;46892;45.668;11.756;2023-07-13T04:02:06;21.10;85.70
55313;DHT22;46892;45.668;11.756;2023-07-13T04:04:31;21.00;85.90
55313;DHT22;46892;45.668;11.756;2023-07-13T04:06:58;21.00;87.00
55313;DHT22;46892;45.668;11.756;2023-07-13T04:09:25;21.00;86.80
55313;DHT22;46892;45.668;11.756;2023-07-13T04:11:50;20.80;87.00
55313;DHT22;46892;45.668;11.756;2023-07-13T04:14:16;20.70;87.40
55313;DHT22;46892;45.668;11.756;2023-07-13T04:16:43;20.60;87.80
55313;DHT22;46892;45.668;11.756;2023-07-13T04:19:09;20.70;88.20
55313;DHT22;46892;45.668;11.756;2023-07-13T04:21:36;20.80;88.60
55313;DHT22;46892;45.668;11.756;2023-07-13T04:24:03;20.80;88.10
55313;DHT22;46892;45.668;11.756;2023-07-13T04:26:29;20.90;87.80
55313;DHT22;46892;45.668;11.756;2023-07-13T04:28:56;20.90;87.60
55313;DHT22;46892;45.668;11.756;2023-07-13T04:31:22;21.00;87.60
55313;DHT22;46892;45.668;11.756;2023-07-13T04:33:48;21.10;86.70
55313;DHT22;46892;45.668;11.756;2023-07-13T04:36:15;21.20;87.50
55313;DHT22;46892;45.668;11.756;2023-07-13T04:38:41;21.20;86.80
55313;DHT22;46892;45.668;11.756;2023-07-13T04:41:08;21.20;86.00
55313;DHT22;46892;45.668;11.756;2023-07-13T04:43:34;21.20;86.40
55313;DHT22;46892;45.668;11.756;2023-07-13T04:46:09;21.20;86.70
55313;DHT22;46892;45.668;11.756;2023-07-13T04:48:36;21.20;87.40
55313;DHT22;46892;45.668;11.756;2023-07-13T04:51:03;21.10;87.20
55313;DHT22;46892;45.668;11.756;2023-07-13T04:53:29;21.20;87.00
55313;DHT22;46892;45.668;11.756;2023-07-13T04:55:56;21.20;86.80
55313;DHT22;46892;45.668;11.756;2023-07-13T04:58:22;21.20;86.70
55313;DHT22;46892;45.668;11.756;2023-07-13T05:00:48;21.20;86.90
55313;DHT22;46892;45.668;11.756;2023-07-13T05:03:14;21.30;87.60
55313;DHT22;46892;45.668;11.756;2023-07-13T05:05:40;21.20;86.90
55313;DHT22;46892;45.668;11.756;2023-07-13T05:08:05;21.20;87.10
55313;DHT22;46892;45.668;11.756;2023-07-13T05:10:33;21.10;87.60
55313;DHT22;46892;45.668;11.756;2023-07-13T05:12:59;21.20;87.00
55313;DHT22;46892;45.668;11.756;2023-07-13T05:15:24;21.20;87.50
55313;DHT22;46892;45.668;11.756;2023-07-13T05:17:51;21.30;86.90
55313;DHT22;46892;45.668;11.756;2023-07-13T05:20:18;21.20;86.90
55313;DHT22;46892;45.668;11.756;2023-07-13T05:22:45;21.40;86.50
55313;DHT22;46892;45.668;11.756;2023-07-13T05:25:14;21.40;86.60
55313;DHT22;46892;45.668;11.756;2023-07-13T05:27:39;21.30;86.80
55313;DHT22;46892;45.668;11.756;2023-07-13T05:30:06;21.40;86.70
55313;DHT22;46892;45.668;11.756;2023-07-13T05:32:33;21.50;86.30
55313;DHT22;46892;45.668;11.756;2023-07-13T05:34:59;21.60;85.70
55313;DHT22;46892;45.668;11.756;2023-07-13T05:37:25;21.60;86.00
55313;DHT22;46892;45.668;11.756;2023-07-13T05:39:50;21.70;86.10
55313;DHT22;46892;45.668;11.756;2023-07-13T05:42:16;21.90;86.10
55313;DHT22;46892;45.668;11.756;2023-07-13T05:44:42;22.20;85.40
55313;DHT22;46892;45.668;11.756;2023-07-13T05:47:08;22.30;84.80
55313;DHT22;46892;45.668;11.756;2023-07-13T05:49:34;22.50;83.70
55313;DHT22;46892;45.668;11.756;2023-07-13T05:51:59;22.50;83.80
55313;DHT22;46892;45.668;11.756;2023-07-13T05:54:26;22.50;83.00
55313;DHT22;46892;45.668;11.756;2023-07-13T05:56:51;22.60;82.70
55313;DHT22;46892;45.668;11.756;2023-07-13T05:59:18;22.70;82.20
55313;DHT22;46892;45.668;11.756;2023-07-13T06:01:43;22.70;81.70
55313;DHT22;46892;45.668;11.756;2023-07-13T06:04:09;22.70;80.70
55313;DHT22;46892;45.668;11.756;2023-07-13T06:06:35;22.70;80.90
55313;DHT22;46892;45.668;11.756;2023-07-13T06:09:01;22.70;80.90
55313;DHT22;46892;45.668;11.756;2023-07-13T06:11:27;22.70;81.10
55313;DHT22;46892;45.668;11.756;2023-07-13T06:13:55;22.70;80.90
55313;DHT22;46892;45.668;11.756;2023-07-13T06:16:21;22.70;81.10
55313;DHT22;46892;45.668;11.756;2023-07-13T06:18:47;22.80;80.40
55313;DHT22;46892;45.668;11.756;2023-07-13T06:21:16;22.70;80.90
55313;DHT22;46892;45.668;11.756;2023-07-13T06:23:43;22.70;81.30
55313;DHT22;46892;45.668;11.756;2023-07-13T06:26:09;22.70;81.90
55313;DHT22;46892;45.668;11.756;2023-07-13T06:28:36;22.70;82.30
55313;DHT22;46892;45.668;11.756;2023-07-13T06:31:04;22.80;80.70
55313;DHT22;46892;45.668;11.756;2023-07-13T06:33:30;22.80;80.70
55313;DHT22;46892;45.668;11.756;2023-07-13T06:35:55;22.80;80.30
55313;DHT22;46892;45.668;11.756;2023-07-13T06:38:21;22.90;81.30
55313;DHT22;46892;45.668;11.756;2023-07-13T06:40:47;22.90;81.80
55313;DHT22;46892;45.668;11.756;2023-07-13T06:43:13;22.90;80.30
55313;DHT22;46892;45.668;11.756;2023-07-13T06:45:45;22.90;80.30
55313;DHT22;46892;45.668;11.756;2023-07-13T06:48:13;22.90;80.90
55313;DHT22;46892;45.668;11.756;2023-07-13T06:50:39;22.90;80.10
55313;DHT22;46892;45.668;11.756;2023-07-13T06:53:05;22.90;79.50
55313;DHT22;46892;45.668;11.756;2023-07-13T06:55:30;22.90;80.30
55313;DHT22;46892;45.668;11.756;2023-07-13T06:57:57;22.80;82.20
55313;DHT22;46892;45.668;11.756;2023-07-13T07:00:23;22.80;82.40
55313;DHT22;46892;45.668;11.756;2023-07-13T07:02:49;22.80;83.00
55313;DHT22;46892;45.668;11.756;2023-07-13T07:05:15;22.90;82.90
55313;DHT22;46892;45.668;11.756;2023-07-13T07:07:41;23.00;82.30
55313;DHT22;46892;45.668;11.756;2023-07-13T07:10:07;23.00;82.70
55313;DHT22;46892;45.668;11.756;2023-07-13T07:12:33;23.20;82.50
55313;DHT22;46892;45.668;11.756;2023-07-13T07:14:59;23.20;82.30
55313;DHT22;46892;45.668;11.756;2023-07-13T07:17:24;23.30;81.70
55313;DHT22;46892;45.668;11.756;2023-07-13T07:19:52;23.30;81.40
55313;DHT22;46892;45.668;11.756;2023-07-13T07:22:20;23.30;81.50
55313;DHT22;46892;45.668;11.756;2023-07-13T07:24:46;23.20;80.90
55313;DHT22;46892;45.668;11.756;2023-07-13T07:27:12;23.20;81.40
55313;DHT22;46892;45.668;11.756;2023-07-13T07:29:37;23.20;81.50
55313;DHT22;46892;45.668;11.756;2023-07-13T07:32:03;23.20;82.30
55313;DHT22;46892;45.668;11.756;2023-07-13T07:34:30;23.30;81.80
55313;DHT22;46892;45.668;11.756;2023-07-13T07:36:59;23.30;80.50
55313;DHT22;46892;45.668;11.756;2023-07-13T07:39:26;23.30;80.90
55313;DHT22;46892;45.668;11.756;2023-07-13T07:41:52;23.40;81.10
55313;DHT22;46892;45.668;11.756;2023-07-13T07:44:17;23.40;81.20
55313;DHT22;46892;45.668;11.756;2023-07-13T07:46:43;23.50;80.90
55313;DHT22;46892;45.668;11.756;2023-07-13T07:49:09;23.50;78.10
55313;DHT22;46892;45.668;11.756;2023-07-13T07:51:36;23.50;77.90
55313;DHT22;46892;45.668;11.756;2023-07-13T07:54:02;23.50;76.80
55313;DHT22;46892;45.668;11.756;2023-07-13T07:56:28;23.60;76.70
55313;DHT22;46892;45.668;11.756;2023-07-13T07:58:54;23.60;77.10
55313;DHT22;46892;45.668;11.756;2023-07-13T08:01:20;23.60;77.80
55313;DHT22;46892;45.668;11.756;2023-07-13T08:03:45;23.70;77.80
55313;DHT22;46892;45.668;11.756;2023-07-13T08:06:11;23.70;78.50
55313;DHT22;46892;45.668;11.756;2023-07-13T08:08:37;23.60;78.30
55313;DHT22;46892;45.668;11.756;2023-07-13T08:11:08;23.60;79.00
55313;DHT22;46892;45.668;11.756;2023-07-13T08:13:34;23.60;79.60
55313;DHT22;46892;45.668;11.756;2023-07-13T08:16:00;23.70;81.10
55313;DHT22;46892;45.668;11.756;2023-07-13T08:18:26;23.70;81.60
55313;DHT22;46892;45.668;11.756;2023-07-13T08:20:54;23.90;82.40
55313;DHT22;46892;45.668;11.756;2023-07-13T08:23:22;24.00;82.10
55313;DHT22;46892;45.668;11.756;2023-07-13T08:25:54;24.10;80.80
55313;DHT22;46892;45.668;11.756;2023-07-13T08:28:21;24.10;80.50
55313;DHT22;46892;45.668;11.756;2023-07-13T08:30:47;24.20;80.90
55313;DHT22;46892;45.668;11.756;2023-07-13T08:33:21;24.20;80.40
55313;DHT22;46892;45.668;11.756;2023-07-13T08:35:50;24.10;79.30
55313;DHT22;46892;45.668;11.756;2023-07-13T08:38:16;24.00;80.20
55313;DHT22;46892;45.668;11.756;2023-07-13T08:40:43;24.00;80.40
55313;DHT22;46892;45.668;11.756;2023-07-13T08:43:16;24.00;80.50
55313;DHT22;46892;45.668;11.756;2023-07-13T08:45:49;24.00;79.60
55313;DHT22;46892;45.668;11.756;2023-07-13T08:48:26;24.10;79.60
55313;DHT22;46892;45.668;11.756;2023-07-13T08:53:47;24.00;80.10
55313;DHT22;46892;45.668;11.756;2023-07-13T08:56:22;24.00;80.40
55313;DHT22;46892;45.668;11.756;2023-07-13T08:58:53;24.00;80.80
55313;DHT22;46892;45.668;11.756;2023-07-13T09:01:22;24.00;80.20
55313;DHT22;46892;45.668;11.756;2023-07-13T09:04:09;24.00;80.80
55313;DHT22;46892;45.668;11.756;2023-07-13T09:12:40;24.00;80.60
55313;DHT22;46892;45.668;11.756;2023-07-13T09:15:24;24.00;81.10
55313;DHT22;46892;45.668;11.756;2023-07-13T09:17:52;24.00;81.30
55313;DHT22;46892;45.668;11.756;2023-07-13T09:22:59;24.20;81.40
55313;DHT22;46892;45.668;11.756;2023-07-13T09:25:32;24.20;81.50
55313;DHT22;46892;45.668;11.756;2023-07-13T09:28:47;24.20;81.20
55313;DHT22;46892;45.668;11.756;2023-07-13T09:33:41;24.20;81.50
55313;DHT22;46892;45.668;11.756;2023-07-13T09:36:32;24.20;81.70
55313;DHT22;46892;45.668;11.756;2023-07-13T09:39:04;24.20;81.60
55313;DHT22;46892;45.668;11.756;2023-07-13T09:41:48;24.10;81.30
55313;DHT22;46892;45.668;11.756;2023-07-13T09:44:30;24.00;81.50
55313;DHT22;46892;45.668;11.756;2023-07-13T09:46:57;24.00;81.70
55313;DHT22;46892;45.668;11.756;2023-07-13T09:49:25;23.90;81.70
55313;DHT22;46892;45.668;11.756;2023-07-13T09:51:59;23.90;81.40
55313;DHT22;46892;45.668;11.756;2023-07-13T09:54:26;23.90;81.50
55313;DHT22;46892;45.668;11.756;2023-07-13T09:56:58;23.90;81.30
55313;DHT22;46892;45.668;11.756;2023-07-13T09:59:32;23.90;81.50
55313;DHT22;46892;45.668;11.756;2023-07-13T10:01:58;24.00;82.00
55313;DHT22;46892;45.668;11.756;2023-07-13T10:04:32;23.90;82.00
55313;DHT22;46892;45.668;11.756;2023-07-13T10:07:09;23.90;82.70
55313;DHT22;46892;45.668;11.756;2023-07-13T10:09:35;23.90;82.70
55313;DHT22;46892;45.668;11.756;2023-07-13T10:12:01;23.90;83.00
55313;DHT22;46892;45.668;11.756;2023-07-13T10:14:27;23.90;82.70
55313;DHT22;46892;45.668;11.756;2023-07-13T10:16:59;24.00;81.10
55313;DHT22;46892;45.668;11.756;2023-07-13T10:19:31;24.00;79.60
55313;DHT22;46892;45.668;11.756;2023-07-13T10:22:07;24.00;75.60
55313;DHT22;46892;45.668;11.756;2023-07-13T10:24:37;24.20;74.60
55313;DHT22;46892;45.668;11.756;2023-07-13T10:27:17;24.30;74.40
55313;DHT22;46892;45.668;11.756;2023-07-13T10:32:20;24.60;75.90
55313;DHT22;46892;45.668;11.756;2023-07-13T10:34:48;24.90;74.90
55313;DHT22;46892;45.668;11.756;2023-07-13T10:37:23;25.00;75.30
55313;DHT22;46892;45.668;11.756;2023-07-13T10:39:52;25.20;76.30
55313;DHT22;46892;45.668;11.756;2023-07-13T10:42:32;25.30;72.00
55313;DHT22;46892;45.668;11.756;2023-07-13T10:44:59;25.50;72.10
55313;DHT22;46892;45.668;11.756;2023-07-13T10:47:25;25.70;72.20
55313;DHT22;46892;45.668;11.756;2023-07-13T10:49:54;25.80;71.00
55313;DHT22;46892;45.668;11.756;2023-07-13T10:52:48;25.90;73.00
55313;DHT22;46892;45.668;11.756;2023-07-13T10:58:14;26.20;70.20
55313;DHT22;46892;45.668;11.756;2023-07-13T11:00:56;26.20;69.60
55313;DHT22;46892;45.668;11.756;2023-07-13T11:03:27;26.30;68.50
55313;DHT22;46892;45.668;11.756;2023-07-13T11:06:04;26.50;68.90
55313;DHT22;46892;45.668;11.756;2023-07-13T11:10:56;26.70;66.20
55313;DHT22;46892;45.668;11.756;2023-07-13T11:13:56;26.80;66.80
55313;DHT22;46892;45.668;11.756;2023-07-13T11:25:20;27.30;65.90
55313;DHT22;46892;45.668;11.756;2023-07-13T11:30:39;27.60;64.80
55313;DHT22;46892;45.668;11.756;2023-07-13T11:33:18;27.70;65.90
55313;DHT22;46892;45.668;11.756;2023-07-13T11:38:19;28.00;65.10
55313;DHT22;46892;45.668;11.756;2023-07-13T11:40:47;28.00;61.60
55313;DHT22;46892;45.668;11.756;2023-07-13T11:43:15;28.00;63.20
55313;DHT22;46892;45.668;11.756;2023-07-13T11:45:43;28.00;62.90
55313;DHT22;46892;45.668;11.756;2023-07-13T11:48:28;28.00;62.50
55313;DHT22;46892;45.668;11.756;2023-07-13T11:51:03;27.90;61.00
55313;DHT22;46892;45.668;11.756;2023-07-13T11:53:40;27.90;61.10
55313;DHT22;46892;45.668;11.756;2023-07-13T11:56:06;28.00;61.90
55313;DHT22;46892;45.668;11.756;2023-07-13T11:58:33;28.00;61.20
55313;DHT22;46892;45.668;11.756;2023-07-13T12:01:01;28.00;62.00
55313;DHT22;46892;45.668;11.756;2023-07-13T12:03:30;28.00;60.40
55313;DHT22;46892;45.668;11.756;2023-07-13T12:06:04;28.00;61.30
55313;DHT22;46892;45.668;11.756;2023-07-13T12:08:38;27.90;60.20
55313;DHT22;46892;45.668;11.756;2023-07-13T12:11:15;27.90;60.50
55313;DHT22;46892;45.668;11.756;2023-07-13T12:13:44;27.90;61.40
55313;DHT22;46892;45.668;11.756;2023-07-13T12:16:31;27.80;61.40
55313;DHT22;46892;45.668;11.756;2023-07-13T12:18:59;27.90;61.30
55313;DHT22;46892;45.668;11.756;2023-07-13T12:21:44;27.90;62.10
55313;DHT22;46892;45.668;11.756;2023-07-13T12:24:18;28.00;62.30
55313;DHT22;46892;45.668;11.756;2023-07-13T12:26:44;28.10;62.90
55313;DHT22;46892;45.668;11.756;2023-07-13T12:29:16;28.00;64.20
55313;DHT22;46892;45.668;11.756;2023-07-13T12:31:51;28.00;62.70
55313;DHT22;46892;45.668;11.756;2023-07-13T12:34:23;28.00;60.80
55313;DHT22;46892;45.668;11.756;2023-07-13T12:36:56;28.10;62.30
55313;DHT22;46892;45.668;11.756;2023-07-13T12:44:41;28.30;64.80
55313;DHT22;46892;45.668;11.756;2023-07-13T12:47:12;28.40;63.40
55313;DHT22;46892;45.668;11.756;2023-07-13T12:49:42;28.40;61.10
55313;DHT22;46892;45.668;11.756;2023-07-13T12:52:36;28.40;61.10
55313;DHT22;46892;45.668;11.756;2023-07-13T12:55:12;28.40;62.10
55313;DHT22;46892;45.668;11.756;2023-07-13T13:02:50;28.40;60.70
55313;DHT22;46892;45.668;11.756;2023-07-13T13:05:16;28.40;60.80
55313;DHT22;46892;45.668;11.756;2023-07-13T13:07:42;28.40;62.20
55313;DHT22;46892;45.668;11.756;2023-07-13T13:10:14;28.40;59.90
55313;DHT22;46892;45.668;11.756;2023-07-13T13:12:40;28.50;61.70
55313;DHT22;46892;45.668;11.756;2023-07-13T13:15:10;28.50;62.80
55313;DHT22;46892;45.668;11.756;2023-07-13T13:17:37;28.40;61.40
55313;DHT22;46892;45.668;11.756;2023-07-13T13:20:16;28.50;61.40
55313;DHT22;46892;45.668;11.756;2023-07-13T13:22:43;28.60;60.10
55313;DHT22;46892;45.668;11.756;2023-07-13T13:25:12;28.70;60.50
55313;DHT22;46892;45.668;11.756;2023-07-13T13:27:43;28.70;61.20
55313;DHT22;46892;45.668;11.756;2023-07-13T13:30:15;28.70;60.50
55313;DHT22;46892;45.668;11.756;2023-07-13T13:32:43;28.70;62.90
55313;DHT22;46892;45.668;11.756;2023-07-13T13:35:20;28.80;61.30
55313;DHT22;46892;45.668;11.756;2023-07-13T13:37:47;28.80;61.80
55313;DHT22;46892;45.668;11.756;2023-07-13T13:40:18;28.90;62.10
55313;DHT22;46892;45.668;11.756;2023-07-13T13:42:45;29.00;61.50
55313;DHT22;46892;45.668;11.756;2023-07-13T13:45:11;29.00;59.60
55313;DHT22;46892;45.668;11.756;2023-07-13T13:47:43;29.00;59.70
55313;DHT22;46892;45.668;11.756;2023-07-13T13:50:15;28.80;59.60
55313;DHT22;46892;45.668;11.756;2023-07-13T13:52:42;28.80;59.80
55313;DHT22;46892;45.668;11.756;2023-07-13T13:55:20;28.60;60.40
55313;DHT22;46892;45.668;11.756;2023-07-13T13:57:47;28.40;60.20
55313;DHT22;46892;45.668;11.756;2023-07-13T14:00:14;28.40;61.70
55313;DHT22;46892;45.668;11.756;2023-07-13T14:02:42;28.30;63.60
55313;DHT22;46892;45.668;11.756;2023-07-13T14:05:13;28.20;64.30
55313;DHT22;46892;45.668;11.756;2023-07-13T14:07:40;28.20;64.00
55313;DHT22;46892;45.668;11.756;2023-07-13T14:10:12;28.20;65.40
55313;DHT22;46892;45.668;11.756;2023-07-13T14:12:39;28.10;66.00
55313;DHT22;46892;45.668;11.756;2023-07-13T14:15:05;28.10;66.10
55313;DHT22;46892;45.668;11.756;2023-07-13T14:17:31;28.00;65.20
55313;DHT22;46892;45.668;11.756;2023-07-13T14:19:58;28.00;66.10
55313;DHT22;46892;45.668;11.756;2023-07-13T14:22:27;27.90;66.80
55313;DHT22;46892;45.668;11.756;2023-07-13T14:24:54;27.90;67.70
55313;DHT22;46892;45.668;11.756;2023-07-13T14:27:20;27.70;67.30
55313;DHT22;46892;45.668;11.756;2023-07-13T14:29:46;27.60;66.90
55313;DHT22;46892;45.668;11.756;2023-07-13T14:32:12;27.50;67.50
55313;DHT22;46892;45.668;11.756;2023-07-13T14:34:39;27.40;67.60
55313;DHT22;46892;45.668;11.756;2023-07-13T14:37:05;27.30;67.70
55313;DHT22;46892;45.668;11.756;2023-07-13T14:39:31;27.20;68.90
55313;DHT22;46892;45.668;11.756;2023-07-13T14:41:57;26.70;64.20
55313;DHT22;46892;45.668;11.756;2023-07-13T14:44:28;26.40;65.10
55313;DHT22;46892;45.668;11.756;2023-07-13T14:46:55;26.00;67.10
55313;DHT22;46892;45.668;11.756;2023-07-13T14:49:42;25.80;67.70
55313;DHT22;46892;45.668;11.756;2023-07-13T14:52:19;25.50;68.00
55313;DHT22;46892;45.668;11.756;2023-07-13T14:54:46;25.20;69.40
55313;DHT22;46892;45.668;11.756;2023-07-13T14:57:13;25.10;69.30
55313;DHT22;46892;45.668;11.756;2023-07-13T14:59:40;25.10;70.50
55313;DHT22;46892;45.668;11.756;2023-07-13T15:02:26;24.90;69.50
55313;DHT22;46892;45.668;11.756;2023-07-13T15:04:53;24.90;68.70
55313;DHT22;46892;45.668;11.756;2023-07-13T15:07:20;24.60;69.30
55313;DHT22;46892;45.668;11.756;2023-07-13T15:09:47;24.50;70.20
55313;DHT22;46892;45.668;11.756;2023-07-13T15:12:13;24.30;71.30
55313;DHT22;46892;45.668;11.756;2023-07-13T15:14:39;24.10;72.30
55313;DHT22;46892;45.668;11.756;2023-07-13T15:17:08;24.00;74.20
55313;DHT22;46892;45.668;11.756;2023-07-13T15:19:43;23.80;75.30
55313;DHT22;46892;45.668;11.756;2023-07-13T15:22:09;23.70;77.00
55313;DHT22;46892;45.668;11.756;2023-07-13T15:24:35;23.40;77.70
55313;DHT22;46892;45.668;11.756;2023-07-13T15:27:04;23.20;79.10
55313;DHT22;46892;45.668;11.756;2023-07-13T15:29:29;23.10;79.50
55313;DHT22;46892;45.668;11.756;2023-07-13T15:31:55;23.00;79.10
55313;DHT22;46892;45.668;11.756;2023-07-13T15:34:24;22.80;76.70
55313;DHT22;46892;45.668;11.756;2023-07-13T15:36:51;22.70;79.10
55313;DHT22;46892;45.668;11.756;2023-07-13T15:39:17;22.50;80.70
55313;DHT22;46892;45.668;11.756;2023-07-13T15:41:44;22.30;81.20
55313;DHT22;46892;45.668;11.756;2023-07-13T15:44:29;22.20;81.40
55313;DHT22;46892;45.668;11.756;2023-07-13T15:46:56;22.20;81.80
55313;DHT22;46892;45.668;11.756;2023-07-13T15:49:22;22.20;81.90
55313;DHT22;46892;45.668;11.756;2023-07-13T15:51:48;22.00;81.80
55313;DHT22;46892;45.668;11.756;2023-07-13T15:54:16;22.10;82.00
55313;DHT22;46892;45.668;11.756;2023-07-13T15:56:42;22.10;82.00
55313;DHT22;46892;45.668;11.756;2023-07-13T15:59:10;22.20;81.90
55313;DHT22;46892;45.668;11.756;2023-07-13T16:01:38;22.30;82.50
55313;DHT22;46892;45.668;11.756;2023-07-13T16:04:04;22.30;82.40
55313;DHT22;46892;45.668;11.756;2023-07-13T16:06:37;22.30;82.00
55313;DHT22;46892;45.668;11.756;2023-07-13T16:09:05;22.40;82.40
55313;DHT22;46892;45.668;11.756;2023-07-13T16:11:37;22.40;81.20
55313;DHT22;46892;45.668;11.756;2023-07-13T16:14:04;22.50;80.30